createdAt,value
2017-07-23T00:02:14.992Z,7.57
2017-07-23T00:04:41.664Z,7.30
2017-07-23T00:07:08.339Z,7.78
2017-07-23T00:09:35.001Z,7.32
2017-07-23T00:12:01.706Z,6.95
2017-07-23T00:14:28.443Z,7.97
2017-07-23T00:16:55.088Z,7.07
2017-07-23T00:19:21.741Z,7.30
2017-07-23T00:21:48.449Z,7.43
2017-07-23T00:24:15.088Z,7.80
2017-07-23T00:26:41.743Z,6.68
2017-07-23T00:29:08.483Z,6.90
2017-07-23T00:31:35.128Z,6.50
2017-07-23T00:34:01.773Z,7.60
2017-07-23T00:36:28.484Z,7.05
2017-07-23T00:38:55.131Z,6.50
2017-07-23T00:41:21.772Z,8.70
2017-07-23T00:43:48.636Z,7.10
2017-07-23T00:46:15.272Z,7.80
2017-07-23T00:48:41.995Z,6.45
2017-07-23T00:51:09.037Z,7.03
2017-07-23T00:53:35.681Z,7.50
2017-07-23T00:56:02.952Z,7.03
2017-07-23T00:58:29.668Z,7.00
2017-07-23T01:00:56.327Z,6.50
2017-07-23T01:03:22.982Z,6.80
2017-07-23T01:05:49.639Z,6.25
2017-07-23T01:08:16.280Z,6.78
2017-07-23T01:10:42.978Z,7.60
2017-07-23T01:13:09.707Z,6.97
2017-07-23T01:15:36.355Z,6.78
2017-07-23T01:18:03.004Z,7.30
2017-07-23T01:20:29.746Z,6.55
2017-07-23T01:22:56.487Z,6.30
2017-07-23T01:25:23.227Z,6.05
2017-07-23T01:27:49.902Z,6.82
2017-07-23T01:30:16.587Z,5.80
2017-07-23T01:32:43.351Z,7.22
2017-07-23T01:35:10.010Z,7.25
2017-07-23T01:37:36.656Z,6.18
2017-07-23T01:40:03.364Z,7.07
2017-07-23T01:42:30.098Z,6.60
2017-07-23T01:44:56.831Z,6.50
2017-07-23T01:47:23.591Z,7.03
2017-07-23T01:49:50.334Z,6.35
2017-07-23T01:52:16.991Z,7.12
2017-07-23T01:54:43.692Z,6.53
2017-07-23T01:57:10.352Z,6.15
2017-07-23T01:59:37.006Z,6.65
2017-07-23T02:02:03.738Z,6.70
2017-07-23T02:04:30.395Z,6.00
2017-07-23T02:06:57.049Z,6.65
2017-07-23T02:09:23.736Z,6.25
2017-07-23T02:11:50.391Z,5.85
2017-07-23T02:14:17.032Z,6.03
2017-07-23T02:16:43.672Z,6.55
2017-07-23T02:19:10.406Z,7.07
2017-07-23T02:21:37.132Z,6.10
2017-07-23T02:24:03.771Z,5.72
2017-07-23T02:26:30.446Z,6.10
2017-07-23T02:28:57.107Z,6.10
2017-07-23T02:31:23.766Z,5.37
2017-07-23T02:33:50.421Z,6.60
2017-07-23T02:36:17.190Z,6.20
2017-07-23T02:38:43.939Z,6.53
2017-07-23T02:41:10.675Z,6.35
2017-07-23T02:43:37.410Z,5.78
2017-07-23T02:46:04.144Z,5.57
2017-07-23T02:48:30.893Z,6.47
2017-07-23T02:50:57.537Z,6.28
2017-07-23T02:53:24.180Z,6.00
2017-07-23T02:55:51.083Z,5.90
2017-07-23T02:58:17.743Z,6.50
2017-07-23T03:00:44.399Z,6.25
2017-07-23T03:03:11.128Z,5.25
2017-07-23T03:05:37.788Z,5.35
2017-07-23T03:08:04.447Z,6.60
2017-07-23T03:10:31.147Z,6.30
2017-07-23T03:12:57.911Z,6.50
2017-07-23T03:15:24.557Z,6.87
2017-07-23T03:17:51.263Z,6.25
2017-07-23T03:20:17.918Z,6.97
2017-07-23T03:22:44.575Z,6.40
2017-07-23T03:25:11.302Z,6.28
2017-07-23T03:27:37.945Z,6.15
2017-07-23T03:30:04.595Z,6.57
2017-07-23T03:32:31.326Z,6.45
2017-07-23T03:34:58.062Z,6.80
2017-07-23T03:37:24.708Z,5.65
2017-07-23T03:39:51.378Z,5.72
2017-07-23T03:42:18.091Z,5.95
2017-07-23T03:44:44.751Z,5.85
2017-07-23T03:47:11.422Z,6.10
2017-07-23T03:49:38.100Z,6.97
2017-07-23T03:52:04.835Z,6.03
2017-07-23T03:54:31.576Z,5.80
2017-07-23T03:56:58.336Z,6.18
2017-07-23T03:59:24.990Z,6.90
2017-07-23T04:01:51.791Z,6.10
2017-07-23T04:04:18.535Z,6.05
2017-07-23T04:06:45.179Z,5.60
2017-07-23T04:09:11.854Z,6.50
2017-07-23T04:11:38.526Z,6.60
2017-07-23T04:14:05.211Z,6.37
2017-07-23T04:16:31.955Z,5.75
2017-07-23T04:18:58.610Z,6.30
2017-07-23T04:21:25.248Z,6.65
2017-07-23T04:23:51.978Z,6.00
2017-07-23T04:26:18.718Z,6.57
2017-07-23T04:28:45.370Z,5.70
2017-07-23T04:31:12.046Z,6.53
2017-07-23T04:33:38.688Z,6.72
2017-07-23T04:36:05.347Z,6.65
2017-07-23T04:38:32.027Z,6.30
2017-07-23T04:40:58.741Z,6.78
2017-07-23T04:43:25.495Z,6.25
2017-07-23T04:45:52.220Z,6.37
2017-07-23T04:48:18.970Z,6.10
2017-07-23T04:50:45.627Z,5.95
2017-07-23T04:53:12.340Z,5.80
2017-07-23T04:55:38.979Z,6.50
2017-07-23T04:58:05.620Z,6.40
2017-07-23T05:00:32.370Z,6.90
2017-07-23T05:02:59.039Z,6.45
2017-07-23T05:05:25.703Z,6.43
2017-07-23T05:07:52.394Z,6.40
2017-07-23T05:10:19.031Z,7.05
2017-07-23T05:12:45.678Z,5.93
2017-07-23T05:15:12.396Z,6.75
2017-07-23T05:17:39.039Z,6.12
2017-07-23T05:20:05.700Z,6.60
2017-07-23T05:22:32.425Z,6.55
2017-07-23T05:24:59.160Z,6.35
2017-07-23T05:27:25.819Z,5.95
2017-07-23T05:29:52.506Z,5.90
2017-07-23T05:32:19.171Z,6.65
2017-07-23T05:34:45.888Z,6.82
2017-07-23T05:37:12.548Z,5.75
2017-07-23T05:39:39.203Z,5.55
2017-07-23T05:42:05.863Z,6.40
2017-07-23T05:44:32.525Z,7.03
2017-07-23T05:46:59.187Z,7.07
2017-07-23T05:49:25.846Z,6.22
2017-07-23T05:51:52.508Z,5.68
2017-07-23T05:54:19.163Z,6.50
2017-07-23T05:56:45.881Z,7.20
2017-07-23T05:59:12.540Z,7.05
2017-07-23T06:01:39.175Z,7.00
2017-07-23T06:04:06.738Z,7.57
2017-07-23T06:06:33.400Z,6.35
2017-07-23T06:09:00.055Z,6.85
2017-07-23T06:11:26.710Z,6.93
2017-07-23T06:13:53.368Z,6.55
2017-07-23T06:16:20.016Z,6.65
2017-07-23T06:18:46.674Z,6.87
2017-07-23T06:21:13.415Z,6.40
2017-07-23T06:23:40.055Z,6.72
2017-07-23T06:26:06.714Z,5.20
2017-07-23T06:28:33.436Z,6.62
2017-07-23T06:31:00.164Z,6.85
2017-07-23T06:33:26.809Z,5.90
2017-07-23T06:35:53.491Z,5.90
2017-07-23T06:38:20.136Z,5.85
2017-07-23T06:40:46.816Z,6.32
2017-07-23T06:43:13.486Z,6.07
2017-07-23T06:45:40.142Z,5.95
2017-07-23T06:48:06.798Z,5.32
2017-07-23T06:50:33.460Z,5.07
2017-07-23T06:53:00.216Z,5.40
2017-07-23T06:55:26.858Z,5.15
2017-07-23T06:57:53.520Z,4.62
2017-07-23T07:00:20.241Z,5.15
2017-07-23T07:02:46.975Z,4.57
2017-07-23T07:05:13.636Z,4.10
2017-07-23T07:07:40.375Z,4.93
2017-07-23T07:10:07.021Z,4.47
2017-07-23T07:12:33.685Z,4.20
2017-07-23T07:15:00.329Z,4.95
2017-07-23T07:17:26.978Z,5.15
2017-07-23T07:19:53.771Z,6.40
2017-07-23T07:22:20.431Z,4.85
2017-07-23T07:24:47.154Z,4.82
2017-07-23T07:27:13.815Z,5.22
2017-07-23T07:29:40.460Z,5.03
2017-07-23T07:32:07.118Z,4.47
2017-07-23T07:34:33.797Z,5.65
2017-07-23T07:37:00.450Z,4.57
2017-07-23T07:39:27.181Z,4.45
2017-07-23T07:41:53.850Z,4.40
2017-07-23T07:44:20.516Z,4.40
2017-07-23T07:46:47.215Z,4.35
2017-07-23T07:49:13.872Z,3.30
2017-07-23T07:51:40.512Z,4.12
2017-07-23T07:54:07.174Z,3.30
2017-07-23T07:56:33.846Z,3.65
2017-07-23T07:59:00.492Z,3.30
2017-07-23T08:01:27.140Z,3.37
2017-07-23T08:03:53.801Z,2.58
2017-07-23T08:06:20.440Z,3.05
2017-07-23T08:08:47.077Z,3.10
2017-07-23T08:11:13.800Z,3.17
2017-07-23T08:13:40.439Z,3.10
2017-07-23T08:16:07.075Z,2.35
2017-07-23T08:18:33.737Z,2.55
2017-07-23T08:21:00.466Z,3.33
2017-07-23T08:23:27.109Z,3.15
2017-07-23T08:25:53.943Z,3.00
2017-07-23T08:28:20.587Z,2.95
2017-07-23T08:30:47.322Z,3.37
2017-07-23T08:33:13.980Z,2.75
2017-07-23T08:35:40.688Z,2.42
2017-07-23T08:38:07.342Z,3.28
2017-07-23T08:40:34.019Z,3.45
2017-07-23T08:43:00.722Z,2.75
2017-07-23T08:45:27.392Z,2.83
2017-07-23T08:47:54.080Z,3.03
2017-07-23T08:50:20.838Z,2.87
2017-07-23T08:52:47.485Z,2.40
2017-07-23T08:55:14.157Z,2.80
2017-07-23T08:57:40.814Z,3.40
2017-07-23T09:00:07.488Z,2.60
2017-07-23T09:02:34.161Z,2.30
2017-07-23T09:05:00.891Z,2.28
2017-07-23T09:07:27.541Z,2.80
2017-07-23T09:09:54.257Z,2.05
2017-07-23T09:12:21.022Z,1.73
2017-07-23T09:14:47.684Z,1.92
2017-07-23T09:17:14.375Z,2.40
2017-07-23T09:19:41.018Z,1.77
2017-07-23T09:22:07.676Z,1.70
2017-07-23T09:24:34.392Z,2.40
2017-07-23T09:27:01.051Z,2.45
2017-07-23T09:29:27.696Z,2.35
2017-07-23T09:31:54.360Z,2.00
2017-07-23T09:34:21.044Z,1.85
2017-07-23T09:36:47.684Z,2.30
2017-07-23T09:39:14.431Z,2.40
2017-07-23T09:41:41.076Z,1.60
2017-07-23T09:44:08.301Z,2.40
2017-07-23T09:46:35.087Z,2.15
2017-07-23T09:49:01.751Z,1.80
2017-07-23T09:51:28.410Z,1.77
2017-07-23T09:53:55.102Z,2.30
2017-07-23T09:56:21.823Z,1.75
2017-07-23T09:58:48.482Z,1.70
2017-07-23T10:01:15.208Z,1.80
2017-07-23T10:03:41.853Z,1.90
2017-07-23T10:06:08.602Z,2.12
2017-07-23T10:08:35.265Z,1.55
2017-07-23T10:11:01.922Z,1.80
2017-07-23T10:13:28.582Z,1.60
2017-07-23T10:15:55.241Z,2.10
2017-07-23T10:18:21.988Z,2.12
2017-07-23T10:20:48.642Z,2.47
2017-07-23T10:23:15.387Z,1.90
2017-07-23T10:25:42.112Z,1.10
2017-07-23T10:28:08.754Z,1.70
2017-07-23T10:30:35.800Z,1.80
2017-07-23T10:33:02.459Z,1.62
2017-07-23T10:35:29.199Z,1.55
2017-07-23T10:37:55.879Z,1.70
2017-07-23T10:40:22.534Z,1.70
2017-07-23T10:42:49.175Z,1.40
2017-07-23T10:45:15.940Z,1.33
2017-07-23T10:47:42.680Z,1.80
2017-07-23T10:50:09.320Z,1.17
2017-07-23T10:52:35.995Z,1.65
2017-07-23T10:55:02.664Z,1.55
2017-07-23T10:57:29.358Z,1.37
2017-07-23T10:59:56.020Z,1.45
2017-07-23T11:02:22.734Z,1.77
2017-07-23T11:04:49.376Z,1.50
2017-07-23T11:07:16.053Z,1.42
2017-07-23T11:09:42.718Z,1.48
2017-07-23T11:12:09.360Z,1.40
2017-07-23T11:14:36.016Z,1.80
2017-07-23T11:17:02.655Z,1.90
2017-07-23T11:19:29.301Z,1.70
2017-07-23T11:21:56.055Z,1.23
2017-07-23T11:24:22.710Z,1.40
2017-07-23T11:26:49.348Z,1.50
2017-07-23T11:29:16.023Z,1.42
2017-07-23T11:31:42.691Z,1.17
2017-07-23T11:34:09.445Z,1.30
2017-07-23T11:36:36.186Z,1.15
2017-07-23T11:39:02.847Z,1.20
2017-07-23T11:41:29.492Z,0.88
2017-07-23T11:43:56.207Z,1.60
2017-07-23T11:46:22.955Z,1.15
2017-07-23T11:48:49.601Z,1.48
2017-07-23T11:51:16.345Z,0.95
2017-07-23T11:53:43.081Z,1.77
2017-07-23T11:56:09.724Z,1.42
2017-07-23T11:58:36.448Z,1.42
2017-07-23T12:01:03.089Z,1.35
2017-07-23T12:03:29.838Z,0.90
2017-07-23T12:05:56.500Z,1.08
2017-07-23T12:08:23.160Z,1.10
2017-07-23T12:10:49.846Z,1.48
2017-07-23T12:13:16.519Z,1.12
2017-07-23T12:15:43.221Z,1.23
2017-07-23T12:18:09.865Z,1.55
2017-07-23T12:20:36.600Z,1.10
2017-07-23T12:23:03.255Z,1.05
2017-07-23T12:25:29.915Z,1.40
2017-07-23T12:27:56.575Z,1.20
2017-07-23T12:30:23.260Z,1.20
2017-07-23T12:32:49.900Z,0.90
2017-07-23T12:35:16.571Z,1.15
2017-07-23T12:37:43.238Z,1.87
2017-07-23T12:40:09.930Z,1.45
2017-07-23T12:42:36.674Z,1.35
2017-07-23T12:45:03.324Z,1.25
2017-07-23T12:47:29.983Z,1.30
2017-07-23T12:49:56.682Z,1.30
2017-07-23T12:52:23.439Z,1.52
2017-07-23T12:54:50.161Z,1.42
2017-07-23T12:57:16.825Z,1.10
2017-07-23T12:59:43.494Z,0.95
2017-07-23T13:02:10.215Z,1.30
2017-07-23T13:04:36.951Z,1.23
2017-07-23T13:07:03.669Z,0.80
2017-07-23T13:09:30.336Z,0.90
2017-07-23T13:11:57.010Z,0.83
2017-07-23T13:14:23.648Z,0.93
2017-07-23T13:16:50.305Z,1.00
2017-07-23T13:19:17.078Z,0.80
2017-07-23T13:21:43.757Z,0.80
2017-07-23T13:24:10.471Z,1.00
2017-07-23T13:26:37.193Z,1.27
2017-07-23T13:29:03.844Z,2.20
2017-07-23T13:31:30.588Z,1.80
2017-07-23T13:33:57.248Z,2.00
2017-07-23T13:36:23.903Z,1.50
2017-07-23T13:38:50.566Z,1.37
2017-07-23T13:41:17.351Z,0.83
2017-07-23T13:43:44.011Z,0.93
2017-07-23T13:46:10.716Z,1.17
2017-07-23T13:48:37.553Z,0.60
2017-07-23T13:51:04.206Z,0.70
2017-07-23T13:53:30.863Z,0.97
2017-07-23T13:55:57.526Z,0.90
2017-07-23T13:58:24.195Z,0.90
2017-07-23T14:00:50.848Z,0.70
2017-07-23T14:03:17.516Z,0.82
2017-07-23T14:05:44.240Z,1.80
2017-07-23T14:08:10.994Z,1.37
2017-07-23T14:10:37.735Z,0.77
2017-07-23T14:13:04.394Z,0.50
2017-07-23T14:15:31.048Z,0.65
2017-07-23T14:17:57.732Z,0.80
2017-07-23T14:20:24.376Z,0.60
2017-07-23T14:22:51.025Z,0.70
2017-07-23T14:25:17.698Z,0.43
2017-07-23T14:27:44.358Z,0.60
2017-07-23T14:30:11.026Z,0.50
2017-07-23T14:32:37.795Z,0.90
2017-07-23T14:35:04.448Z,1.23
2017-07-23T14:37:31.115Z,0.55
2017-07-23T14:39:57.910Z,0.90
2017-07-23T14:42:24.597Z,0.45
2017-07-23T14:44:51.245Z,0.73
2017-07-23T14:47:17.920Z,1.00
2017-07-23T14:49:44.661Z,1.45
2017-07-23T14:52:11.401Z,0.80
2017-07-23T14:54:38.059Z,1.02
2017-07-23T14:57:04.795Z,0.60
2017-07-23T14:59:31.520Z,0.90
2017-07-23T15:01:58.195Z,0.75
2017-07-23T15:04:24.915Z,0.88
2017-07-23T15:06:51.598Z,0.75
2017-07-23T15:09:18.279Z,0.85
2017-07-23T15:11:44.942Z,0.75
2017-07-23T15:14:11.628Z,0.95
2017-07-23T15:16:38.422Z,0.70
2017-07-23T15:19:05.064Z,0.68
2017-07-23T15:21:31.728Z,1.30
2017-07-23T15:23:59.290Z,1.27
2017-07-23T15:26:25.936Z,0.77
2017-07-23T15:28:52.603Z,0.55
2017-07-23T15:31:19.279Z,0.70
2017-07-23T15:33:45.924Z,1.02
2017-07-23T15:36:12.650Z,0.95
2017-07-23T15:38:39.304Z,1.15
2017-07-23T15:41:05.953Z,0.70
2017-07-23T15:43:32.679Z,1.20
2017-07-23T15:45:59.354Z,0.70
2017-07-23T15:48:26.040Z,0.60
2017-07-23T15:50:52.702Z,1.05
2017-07-23T15:53:19.438Z,0.93
2017-07-23T15:55:46.175Z,0.50
2017-07-23T15:58:12.835Z,0.40
2017-07-23T16:00:39.503Z,0.60
2017-07-23T16:03:06.162Z,0.70
2017-07-23T16:05:32.824Z,0.70
2017-07-23T16:07:59.492Z,0.97
2017-07-23T16:10:26.132Z,0.70
2017-07-23T16:12:52.788Z,0.60
2017-07-23T16:15:19.499Z,0.40
2017-07-23T16:17:46.140Z,0.60
2017-07-23T16:20:12.865Z,0.70
2017-07-23T16:22:39.868Z,0.83
2017-07-23T16:25:06.534Z,0.93
2017-07-23T16:27:33.207Z,0.50
2017-07-23T16:29:59.879Z,0.70
2017-07-23T16:32:26.592Z,0.70
2017-07-23T16:34:53.236Z,0.57
2017-07-23T16:37:19.953Z,0.60
2017-07-23T16:39:46.706Z,0.87
2017-07-23T16:42:13.436Z,0.50
2017-07-23T16:44:40.092Z,0.60
2017-07-23T16:47:06.835Z,0.50
2017-07-23T16:49:33.494Z,0.68
2017-07-23T16:52:00.192Z,0.70
2017-07-23T16:54:26.832Z,0.52
2017-07-23T16:56:54.405Z,1.20
2017-07-23T16:59:21.137Z,0.80
2017-07-23T17:01:47.886Z,1.00
2017-07-23T17:04:14.620Z,1.08
2017-07-23T17:06:41.308Z,1.12
2017-07-23T17:09:08.011Z,0.98
2017-07-23T17:11:34.678Z,0.93
2017-07-23T17:14:01.354Z,0.70
2017-07-23T17:16:27.998Z,1.15
2017-07-23T17:18:54.637Z,0.80
2017-07-23T17:21:21.288Z,1.25
2017-07-23T17:23:47.930Z,0.73
2017-07-23T17:26:14.573Z,1.00
2017-07-23T17:28:41.327Z,1.12
2017-07-23T17:31:07.967Z,0.85
2017-07-23T17:33:34.692Z,1.40
2017-07-23T17:36:01.432Z,0.90
2017-07-23T17:38:28.195Z,0.60
2017-07-23T17:40:54.931Z,1.10
2017-07-23T17:43:21.600Z,0.80
2017-07-23T17:45:48.308Z,1.00
2017-07-23T17:48:15.050Z,0.80
2017-07-23T17:50:41.784Z,0.68
2017-07-23T17:53:08.438Z,1.05
2017-07-23T17:55:35.080Z,1.65
2017-07-23T17:58:01.804Z,1.08
2017-07-23T18:00:28.544Z,1.02
2017-07-23T18:02:55.184Z,1.10
2017-07-23T18:05:21.843Z,1.10
2017-07-23T18:07:48.485Z,1.20
2017-07-23T18:10:15.145Z,0.90
2017-07-23T18:12:41.846Z,1.20
2017-07-23T18:15:08.489Z,0.60
2017-07-23T18:17:35.233Z,1.35
2017-07-23T18:20:01.963Z,1.30
2017-07-23T18:22:28.604Z,0.90
2017-07-23T18:24:55.263Z,1.60
2017-07-23T18:27:21.984Z,0.75
2017-07-23T18:29:48.619Z,1.50
2017-07-23T18:32:15.372Z,1.20
2017-07-23T18:34:42.032Z,0.75
2017-07-23T18:37:08.692Z,1.15
2017-07-23T18:39:35.394Z,1.92
2017-07-23T18:42:02.120Z,1.12
2017-07-23T18:44:28.782Z,1.58
2017-07-23T18:46:55.442Z,1.45
2017-07-23T18:49:22.166Z,1.00
2017-07-23T18:51:48.903Z,1.73
2017-07-23T18:54:15.567Z,2.08
2017-07-23T18:56:42.282Z,1.83
2017-07-23T18:59:09.023Z,1.50
2017-07-23T19:01:35.712Z,2.05
2017-07-23T19:04:02.401Z,1.60
2017-07-23T19:06:29.146Z,1.62
2017-07-23T19:08:55.898Z,1.05
2017-07-23T19:11:22.626Z,1.20
2017-07-23T19:13:49.362Z,1.55
2017-07-23T19:16:16.115Z,0.93
2017-07-23T19:18:42.806Z,1.00
2017-07-23T19:21:09.486Z,1.23
2017-07-23T19:23:36.146Z,1.80
2017-07-23T19:26:03.309Z,1.85
2017-07-23T19:28:29.966Z,1.35
2017-07-23T19:30:56.643Z,1.10
2017-07-23T19:33:23.388Z,1.65
2017-07-23T19:35:50.050Z,1.40
2017-07-23T19:38:16.775Z,1.25
2017-07-23T19:40:43.468Z,1.33
2017-07-23T19:43:10.152Z,1.10
2017-07-23T19:45:36.800Z,1.90
2017-07-23T19:48:03.502Z,1.30
2017-07-23T19:50:30.144Z,1.20
2017-07-23T19:52:56.802Z,1.25
2017-07-23T19:55:23.510Z,1.30
2017-07-23T19:57:50.195Z,1.08
2017-07-23T20:00:16.933Z,1.20
2017-07-23T20:02:43.693Z,1.55
2017-07-23T20:05:10.351Z,1.80
2017-07-23T20:07:37.010Z,1.40
2017-07-23T20:10:03.711Z,1.40
2017-07-23T20:12:30.374Z,1.55
2017-07-23T20:14:57.034Z,2.03
2017-07-23T20:17:23.831Z,2.58
2017-07-23T20:19:50.570Z,1.80
2017-07-23T20:22:17.346Z,2.37
2017-07-23T20:24:44.003Z,2.12
2017-07-23T20:27:10.666Z,2.37
2017-07-23T20:29:37.318Z,2.22
2017-07-23T20:32:04.075Z,1.87
2017-07-23T20:34:30.730Z,1.65
2017-07-23T20:36:57.379Z,2.45
2017-07-23T20:39:24.097Z,2.55
2017-07-23T20:41:50.836Z,1.85
2017-07-23T20:44:17.494Z,2.60
2017-07-23T20:46:44.174Z,2.70
2017-07-23T20:49:10.851Z,2.10
2017-07-23T20:51:37.594Z,2.53
2017-07-23T20:54:04.257Z,1.50
2017-07-23T20:56:30.902Z,1.92
2017-07-23T20:58:57.563Z,2.00
2017-07-23T21:01:24.220Z,1.83
2017-07-23T21:03:50.892Z,2.05
2017-07-23T21:06:17.551Z,1.75
2017-07-23T21:08:44.255Z,2.10
2017-07-23T21:11:10.910Z,2.03
2017-07-23T21:13:37.552Z,2.03
2017-07-23T21:16:04.239Z,2.20
2017-07-23T21:18:30.881Z,1.77
2017-07-23T21:20:57.570Z,2.00
2017-07-23T21:23:24.231Z,1.45
2017-07-23T21:25:50.872Z,2.33
2017-07-23T21:28:17.531Z,2.10
2017-07-23T21:30:44.206Z,2.12
2017-07-23T21:33:10.867Z,1.95
2017-07-23T21:35:37.513Z,2.25
2017-07-23T21:38:04.233Z,1.65
2017-07-23T21:40:30.977Z,1.85
2017-07-23T21:42:57.620Z,2.87
2017-07-23T21:45:24.352Z,2.00
2017-07-23T21:47:51.106Z,2.08
2017-07-23T21:50:17.753Z,2.10
2017-07-23T21:52:44.420Z,1.83
2017-07-23T21:55:11.083Z,2.20
2017-07-23T21:57:37.729Z,1.80
2017-07-23T22:00:04.392Z,2.00
2017-07-23T22:02:31.146Z,2.40
2017-07-23T22:04:57.806Z,2.50
2017-07-23T22:07:24.464Z,2.08
2017-07-23T22:09:51.135Z,1.95
2017-07-23T22:12:17.780Z,2.22
2017-07-23T22:14:44.458Z,5.10
2017-07-23T22:17:11.119Z,2.03
2017-07-23T22:19:37.772Z,2.53
2017-07-23T22:22:04.466Z,2.08
2017-07-23T22:24:31.211Z,1.87
2017-07-23T22:26:57.856Z,1.67
2017-07-23T22:29:24.535Z,2.20
2017-07-23T22:31:51.191Z,1.67
2017-07-23T22:34:17.862Z,2.10
2017-07-23T22:36:44.610Z,2.17
2017-07-23T22:39:11.252Z,2.30
2017-07-23T22:41:37.984Z,2.12
2017-07-23T22:44:04.727Z,2.20
2017-07-23T22:46:31.373Z,1.90
2017-07-23T22:48:58.111Z,2.30
2017-07-23T22:51:24.795Z,1.95
2017-07-23T22:53:51.444Z,2.65
2017-07-23T22:56:18.107Z,1.70
2017-07-23T22:58:44.776Z,2.15
2017-07-23T23:01:11.425Z,2.15
2017-07-23T23:03:38.084Z,2.40
2017-07-23T23:06:04.891Z,2.87
2017-07-23T23:08:31.631Z,2.10
2017-07-23T23:10:58.371Z,2.25
2017-07-23T23:13:25.040Z,2.28
2017-07-23T23:15:51.680Z,2.30
2017-07-23T23:18:18.393Z,2.00
2017-07-23T23:20:45.122Z,1.92
2017-07-23T23:23:11.778Z,2.70
2017-07-23T23:25:38.438Z,2.20
2017-07-23T23:28:05.110Z,1.90
2017-07-23T23:30:31.780Z,2.30
2017-07-23T23:32:58.516Z,2.67
2017-07-23T23:35:25.264Z,2.40
2017-07-23T23:37:51.914Z,2.00
2017-07-23T23:40:18.650Z,2.60
2017-07-23T23:42:45.314Z,2.85
2017-07-23T23:45:11.971Z,2.08
2017-07-23T23:47:38.671Z,2.65
2017-07-23T23:50:05.351Z,2.00
2017-07-23T23:52:32.006Z,2.37
2017-07-23T23:54:58.682Z,2.20
2017-07-23T23:57:25.346Z,1.87
2017-07-23T23:59:52.062Z,1.95
